Terminal Aerodrome Forecast
Issued by NWS

Home | Current Version | Previous Version | Text Only | Print | Product List | Glossary On
Versions: 1 2 3 4 5 6 7 8 9 10 11 12 13 14 15 16 17 18
000
FTUS45 KTFX 251300 AAA
TAFLWT
TAF AMD
KLWT 251327Z 2513/2612 29010KT P6SM VCSH OVC006
      TEMPO 2514/2517 P6SM SCT006 BKN015
     FM251700 30010KT P6SM SCT008 OVC020
     FM260000 VRB06KT P6SM SCT025 BKN040
     FM260400 14005KT P6SM SCT080=

USA.gov is the U.S. government's official web portal to all federal, state and local government web resources and services.